createdAt,value
2023-01-05T00:00:14.288Z,7.21
2023-01-05T00:01:16.316Z,7.66
2023-01-05T00:02:24.017Z,7.58
2023-01-05T00:03:22.088Z,6.81
2023-01-05T00:04:24.255Z,7.17
2023-01-05T00:05:26.472Z,7.49
2023-01-05T00:06:28.473Z,7.47
2023-01-05T00:07:30.531Z,7.75
2023-01-05T00:08:37.101Z,7.50
2023-01-05T00:09:36.544Z,7.21
2023-01-05T00:10:38.709Z,7.05
2023-01-05T00:11:40.584Z,7.53
2023-01-05T00:12:42.504Z,6.85
2023-01-05T00:13:44.376Z,7.09
2023-01-05T00:14:46.260Z,6.99
2023-01-05T00:15:48.133Z,6.71
2023-01-05T00:16:50.955Z,7.19
2023-01-05T00:17:53.662Z,7.03
2023-01-05T00:18:55.546Z,6.95
2023-01-05T00:19:58.633Z,7.17
2023-01-05T00:21:02.461Z,7.39
2023-01-05T00:22:17.240Z,7.08
2023-01-05T00:23:19.883Z,7.51
2023-01-05T00:24:21.775Z,7.99
2023-01-05T00:25:26.663Z,7.28
2023-01-05T00:26:29.323Z,7.18
2023-01-05T00:27:32.782Z,7.09
2023-01-05T00:28:34.758Z,6.63
2023-01-05T00:29:36.624Z,6.83
2023-01-05T00:30:44.895Z,7.03
2023-01-05T00:31:46.857Z,7.65
2023-01-05T00:32:49.745Z,6.61
2023-01-05T00:33:51.665Z,6.65
2023-01-05T00:34:55.572Z,7.27
2023-01-05T00:35:57.488Z,7.47
2023-01-05T00:36:59.557Z,7.19
2023-01-05T00:38:01.754Z,6.79
2023-01-05T00:39:03.609Z,6.91
2023-01-05T00:40:12.441Z,7.19
2023-01-05T00:41:14.486Z,6.86
2023-01-05T00:42:16.676Z,8.79
2023-01-05T00:43:18.547Z,8.29
2023-01-05T00:44:20.419Z,7.50
2023-01-05T00:45:22.797Z,7.24
2023-01-05T00:46:24.933Z,6.95
2023-01-05T00:47:27.821Z,6.99
2023-01-05T00:48:30.022Z,6.92
2023-01-05T00:49:34.381Z,6.71
2023-01-05T00:50:36.530Z,6.74
2023-01-05T00:51:38.408Z,6.89
2023-01-05T00:52:41.076Z,6.89
2023-01-05T00:53:42.978Z,6.99
2023-01-05T00:54:45.331Z,7.09
2023-01-05T00:55:56.256Z,6.72
2023-01-05T00:56:58.857Z,7.89
2023-01-05T00:58:00.971Z,6.85
2023-01-05T00:59:02.934Z,6.73
2023-01-05T01:00:07.715Z,6.63
2023-01-05T01:01:11.311Z,7.42
2023-01-05T01:02:14.272Z,7.97
2023-01-05T01:03:16.305Z,7.33
2023-01-05T01:04:18.547Z,7.19
2023-01-05T01:05:20.596Z,6.61
2023-01-05T01:06:23.415Z,7.61
2023-01-05T01:07:25.303Z,7.15
2023-01-05T01:08:27.387Z,6.55
2023-01-05T01:09:30.659Z,7.28
2023-01-05T01:10:33.054Z,7.31
2023-01-05T01:11:35.830Z,6.94
2023-01-05T01:12:38.775Z,7.06
2023-01-05T01:13:40.760Z,6.94
2023-01-05T01:14:46.480Z,7.75
2023-01-05T01:15:48.660Z,7.76
2023-01-05T01:16:50.975Z,7.20
2023-01-05T01:17:53.134Z,7.24
2023-01-05T01:18:56.331Z,7.73
2023-01-05T01:20:00.509Z,6.72
2023-01-05T01:21:03.573Z,6.88
2023-01-05T01:22:05.482Z,6.83
2023-01-05T01:23:07.360Z,6.78
2023-01-05T01:24:18.474Z,7.00
2023-01-05T01:25:20.485Z,7.09
2023-01-05T01:26:22.994Z,7.24
2023-01-05T01:27:24.871Z,7.25
2023-01-05T01:28:26.749Z,6.55
2023-01-05T01:29:28.899Z,6.98
2023-01-05T01:30:31.458Z,6.97
2023-01-05T01:31:34.303Z,7.08
2023-01-05T01:32:36.282Z,6.95
2023-01-05T01:33:38.979Z,6.66
2023-01-05T01:35:43.003Z,7.72
2023-01-05T01:36:46.397Z,7.99
2023-01-05T01:37:48.299Z,8.64
2023-01-05T01:38:50.170Z,9.03
2023-01-05T01:39:52.105Z,7.64
2023-01-05T01:40:54.733Z,7.43
2023-01-05T01:41:56.721Z,7.14
2023-01-05T01:42:58.688Z,7.66
2023-01-05T01:44:00.708Z,8.32
2023-01-05T01:45:15.498Z,7.75
2023-01-05T01:46:20.191Z,7.30
2023-01-05T01:48:54.449Z,6.92
2023-01-05T01:50:00.236Z,7.17
2023-01-05T01:51:08.883Z,7.15
2023-01-05T01:52:11.383Z,7.62
2023-01-05T01:53:17.057Z,8.05
2023-01-05T01:54:19.091Z,7.48
2023-01-05T01:55:22.082Z,7.50
2023-01-05T01:56:29.023Z,6.39
2023-01-05T01:57:32.953Z,6.94
2023-01-05T01:58:35.317Z,7.27
2023-01-05T01:59:37.394Z,7.64
2023-01-05T02:00:40.680Z,6.67
2023-01-05T02:01:42.880Z,6.99
2023-01-05T02:02:48.245Z,7.22
2023-01-05T02:03:50.625Z,7.07
2023-01-05T02:04:54.634Z,7.07
2023-01-05T02:05:57.854Z,6.73
2023-01-05T02:07:02.262Z,6.84
2023-01-05T02:08:07.987Z,7.64
2023-01-05T02:09:10.135Z,6.96
2023-01-05T02:10:14.997Z,7.29
2023-01-05T02:11:23.735Z,7.84
2023-01-05T02:14:25.819Z,7.63
2023-01-05T02:15:40.446Z,6.78
2023-01-05T02:19:38.249Z,6.71
2023-01-05T02:20:59.405Z,6.95
2023-01-05T02:22:20.707Z,6.50
2023-01-05T02:23:52.463Z,6.89
2023-01-05T02:25:18.348Z,7.57
2023-01-05T02:26:39.470Z,8.37
2023-01-05T02:28:00.274Z,8.29
2023-01-05T02:29:36.700Z,7.53
2023-01-05T02:30:48.153Z,7.52
2023-01-05T02:32:11.929Z,8.03
2023-01-05T02:33:38.590Z,8.12
2023-01-05T02:35:01.233Z,8.08
2023-01-05T02:36:07.940Z,7.84
2023-01-05T02:37:16.371Z,7.97
2023-01-05T02:38:34.129Z,7.71
2023-01-05T02:39:52.316Z,6.95
2023-01-05T02:40:58.092Z,7.43
2023-01-05T02:42:09.595Z,7.29
2023-01-05T02:44:17.648Z,7.16
2023-01-05T02:45:21.677Z,7.00
2023-01-05T02:46:24.072Z,7.58
2023-01-05T02:47:30.095Z,7.45
2023-01-05T02:48:33.898Z,7.12
2023-01-05T02:49:39.916Z,7.41
2023-01-05T02:50:55.177Z,7.37
2023-01-05T02:51:59.486Z,7.28
2023-01-05T02:53:20.157Z,6.76
2023-01-05T02:54:32.147Z,6.99
2023-01-05T02:58:06.922Z,6.84
2023-01-05T02:59:18.696Z,6.97
2023-01-05T03:00:27.977Z,7.48
2023-01-05T03:01:34.657Z,6.76
2023-01-05T03:02:41.117Z,7.32
2023-01-05T03:03:56.320Z,6.80
2023-01-05T03:05:02.069Z,6.83
2023-01-05T03:06:11.016Z,7.69
2023-01-05T03:07:20.402Z,8.09
2023-01-05T03:08:30.584Z,7.94
2023-01-05T03:09:31.756Z,7.87
2023-01-05T03:13:14.009Z,7.81
2023-01-05T03:14:19.715Z,7.20
2023-01-05T03:15:28.265Z,7.40
2023-01-05T03:16:34.139Z,7.69
2023-01-05T03:17:45.727Z,7.48
2023-01-05T03:18:51.488Z,7.32
2023-01-05T03:19:56.421Z,7.41
2023-01-05T03:21:00.329Z,8.06
2023-01-05T03:22:15.324Z,7.66
2023-01-05T03:23:19.732Z,7.84
2023-01-05T03:24:22.023Z,8.15
2023-01-05T03:25:25.983Z,8.11
2023-01-05T03:26:28.479Z,9.25
2023-01-05T03:27:31.745Z,12.84
2023-01-05T03:28:37.423Z,10.75
2023-01-05T03:29:39.363Z,9.98
2023-01-05T03:31:05.328Z,9.34
2023-01-05T03:32:23.017Z,9.21
2023-01-05T03:33:31.670Z,8.72
2023-01-05T03:34:43.560Z,8.88
2023-01-05T03:35:49.913Z,7.87
2023-01-05T03:37:02.477Z,8.62
2023-01-05T03:38:08.197Z,8.24
2023-01-05T03:39:13.960Z,8.36
2023-01-05T03:40:20.164Z,8.83
2023-01-05T03:41:23.497Z,9.20
2023-01-05T03:42:27.900Z,11.10
2023-01-05T03:43:35.587Z,10.54
2023-01-05T03:44:39.651Z,9.68
2023-01-05T03:45:52.463Z,9.67
2023-01-05T03:46:55.948Z,9.29
2023-01-05T03:47:58.065Z,9.17
2023-01-05T03:49:01.000Z,9.35
2023-01-05T03:50:03.867Z,9.00
2023-01-05T03:51:06.912Z,10.21
2023-01-05T03:52:09.185Z,9.54
2023-01-05T03:53:11.390Z,9.82
2023-01-05T03:54:13.302Z,9.87
2023-01-05T03:55:16.022Z,11.92
2023-01-05T03:56:18.743Z,10.24
2023-01-05T03:57:20.633Z,10.79
2023-01-05T03:58:22.713Z,10.97
2023-01-05T03:59:24.836Z,10.21
2023-01-05T04:00:26.959Z,10.51
2023-01-05T04:01:29.202Z,10.87
2023-01-05T04:02:31.547Z,11.65
2023-01-05T04:03:33.867Z,11.04
2023-01-05T04:04:35.988Z,11.45
2023-01-05T04:05:37.884Z,11.11
2023-01-05T04:06:40.886Z,10.73
2023-01-05T04:07:43.259Z,10.91
2023-01-05T04:08:45.327Z,11.65
2023-01-05T04:09:47.368Z,11.63
2023-01-05T04:10:52.420Z,12.80
2023-01-05T04:11:54.458Z,12.38
2023-01-05T04:12:56.573Z,13.47
2023-01-05T04:13:58.658Z,12.61
2023-01-05T04:15:00.559Z,13.00
2023-01-05T04:16:03.354Z,12.36
2023-01-05T04:17:05.514Z,12.06
2023-01-05T04:18:07.692Z,12.09
2023-01-05T04:19:11.202Z,12.59
2023-01-05T04:20:13.739Z,12.85
2023-01-05T04:21:16.337Z,12.48
2023-01-05T04:22:23.677Z,13.17
2023-01-05T04:23:22.163Z,13.56
2023-01-05T04:24:24.028Z,12.96
2023-01-05T04:25:26.015Z,13.97
2023-01-05T04:26:28.229Z,13.40
2023-01-05T04:27:30.206Z,15.49
2023-01-05T04:28:32.669Z,14.19
2023-01-05T04:29:34.753Z,14.79
2023-01-05T04:30:36.836Z,14.95
2023-01-05T04:31:39.076Z,14.25
2023-01-05T04:32:41.194Z,15.44
2023-01-05T04:33:43.175Z,15.58
2023-01-05T04:34:45.945Z,15.17
2023-01-05T04:35:47.848Z,15.83
2023-01-05T04:36:49.902Z,15.25
2023-01-05T04:37:51.818Z,17.90
2023-01-05T04:38:53.844Z,18.73
2023-01-05T04:39:55.706Z,16.79
2023-01-05T04:40:57.671Z,18.05
2023-01-05T04:41:59.748Z,18.52
2023-01-05T04:43:01.847Z,17.56
2023-01-05T04:44:04.945Z,18.68
2023-01-05T04:45:08.251Z,18.56
2023-01-05T04:46:10.927Z,20.54
2023-01-05T04:47:12.955Z,19.36
2023-01-05T04:48:16.498Z,20.97
2023-01-05T04:49:18.637Z,20.36
2023-01-05T04:50:21.933Z,21.41
2023-01-05T04:51:25.539Z,19.82
2023-01-05T04:52:27.855Z,20.72
2023-01-05T04:53:30.036Z,21.15
2023-01-05T04:54:31.895Z,17.86
2023-01-05T04:55:33.807Z,17.14
2023-01-05T04:56:36.910Z,18.66
2023-01-05T04:57:38.937Z,18.84
2023-01-05T04:58:40.832Z,19.99
2023-01-05T04:59:42.987Z,19.59
2023-01-05T05:00:45.862Z,18.30
2023-01-05T05:01:47.893Z,19.32
2023-01-05T05:02:50.558Z,22.24
2023-01-05T05:03:53.189Z,22.26
2023-01-05T05:04:55.472Z,20.40
2023-01-05T05:05:57.611Z,16.93
2023-01-05T05:06:59.685Z,17.47
2023-01-05T05:08:01.699Z,17.65
2023-01-05T05:09:03.937Z,17.27
2023-01-05T05:10:07.662Z,17.00
2023-01-05T05:11:09.564Z,16.76
2023-01-05T05:12:11.854Z,17.44
2023-01-05T05:13:14.093Z,15.88
2023-01-05T05:14:16.559Z,17.28
2023-01-05T05:15:19.945Z,17.28
2023-01-05T05:16:22.346Z,16.56
2023-01-05T05:17:24.745Z,17.33
2023-01-05T05:18:26.767Z,17.95
2023-01-05T05:19:28.654Z,18.05
2023-01-05T05:20:31.651Z,17.51
2023-01-05T05:21:33.687Z,18.02
2023-01-05T05:22:35.680Z,17.16
2023-01-05T05:23:37.762Z,19.52
2023-01-05T05:24:40.045Z,19.03
2023-01-05T05:25:42.191Z,20.01
2023-01-05T05:26:44.399Z,21.61
2023-01-05T05:27:46.391Z,21.25
2023-01-05T05:28:48.289Z,19.83
2023-01-05T05:29:50.200Z,20.83
2023-01-05T05:30:52.460Z,19.52
2023-01-05T05:31:54.466Z,21.62
2023-01-05T05:32:56.630Z,20.12
2023-01-05T05:33:58.701Z,18.39
2023-01-05T05:35:00.609Z,19.15
2023-01-05T05:36:03.458Z,18.85
2023-01-05T05:37:05.983Z,20.51
2023-01-05T05:38:08.477Z,19.21
2023-01-05T05:39:14.760Z,18.81
2023-01-05T05:40:17.682Z,19.67
2023-01-05T05:41:19.575Z,19.21
2023-01-05T05:42:21.457Z,18.73
2023-01-05T05:43:23.599Z,19.14
2023-01-05T05:44:25.666Z,18.24
2023-01-05T05:45:27.681Z,18.65
2023-01-05T05:46:30.698Z,18.50
2023-01-05T05:47:33.996Z,19.32
2023-01-05T05:48:36.563Z,20.31
2023-01-05T05:49:38.821Z,20.67
2023-01-05T05:50:40.938Z,18.97
2023-01-05T05:51:43.091Z,19.84
2023-01-05T05:52:45.197Z,18.27
2023-01-05T05:53:47.707Z,18.87
2023-01-05T05:54:49.913Z,17.69
2023-01-05T05:55:51.824Z,18.67
2023-01-05T05:56:54.006Z,19.58
2023-01-05T05:57:55.975Z,21.65
2023-01-05T05:59:01.623Z,20.39
2023-01-05T06:00:04.398Z,21.26
2023-01-05T06:01:07.120Z,20.38
2023-01-05T06:02:09.616Z,20.69
2023-01-05T06:03:14.330Z,18.50
2023-01-05T06:04:16.392Z,19.74
2023-01-05T06:05:18.606Z,20.44
2023-01-05T06:06:20.880Z,19.05
2023-01-05T06:07:22.946Z,20.85
2023-01-05T06:08:25.145Z,20.74
2023-01-05T06:09:27.194Z,20.19
2023-01-05T06:10:30.812Z,21.19
2023-01-05T06:11:33.056Z,20.84
2023-01-05T06:12:35.304Z,21.11
2023-01-05T06:13:37.972Z,20.25
2023-01-05T06:14:39.951Z,20.79
2023-01-05T06:15:42.796Z,21.09
2023-01-05T06:16:44.896Z,18.52
2023-01-05T06:17:47.309Z,19.53
2023-01-05T06:18:51.197Z,20.34
2023-01-05T06:19:55.531Z,20.99
2023-01-05T06:21:01.709Z,19.55
2023-01-05T06:22:02.675Z,20.57
2023-01-05T06:23:05.740Z,22.63
2023-01-05T06:24:07.776Z,21.51
2023-01-05T06:25:10.931Z,22.93
2023-01-05T06:26:15.156Z,24.96
2023-01-05T06:27:17.058Z,22.49
2023-01-05T06:28:20.616Z,22.01
2023-01-05T06:29:22.874Z,20.52
2023-01-05T06:30:25.953Z,20.69
2023-01-05T06:31:28.278Z,20.54
2023-01-05T06:32:30.634Z,20.31
2023-01-05T06:33:32.769Z,23.78
2023-01-05T06:34:35.059Z,23.78
2023-01-05T06:35:38.769Z,24.69
2023-01-05T06:36:40.970Z,23.49
2023-01-05T06:37:43.510Z,20.99
2023-01-05T06:38:45.382Z,20.37
2023-01-05T06:39:47.351Z,20.09
2023-01-05T06:40:49.595Z,20.94
2023-01-05T06:41:51.465Z,21.47
2023-01-05T06:42:53.358Z,22.34
2023-01-05T06:43:56.085Z,21.39
2023-01-05T06:44:58.082Z,21.77
2023-01-05T06:45:59.998Z,23.13
2023-01-05T06:47:02.538Z,20.56
2023-01-05T06:48:05.364Z,19.65
2023-01-05T06:49:09.153Z,19.56
2023-01-05T06:50:11.659Z,19.63
2023-01-05T06:51:13.643Z,19.19
2023-01-05T06:52:16.847Z,20.39
2023-01-05T06:53:19.427Z,19.53
2023-01-05T06:54:21.419Z,18.89
2023-01-05T06:55:23.605Z,18.34
2023-01-05T06:56:25.871Z,18.43
2023-01-05T06:57:27.750Z,16.34
2023-01-05T06:58:29.624Z,16.07
2023-01-05T06:59:32.301Z,17.00
2023-01-05T07:00:34.533Z,17.96
2023-01-05T07:01:38.830Z,16.58
2023-01-05T07:02:41.472Z,16.31
2023-01-05T07:03:43.401Z,15.67
2023-01-05T07:04:45.378Z,16.67
2023-01-05T07:05:47.256Z,16.70
2023-01-05T07:06:49.334Z,17.79
2023-01-05T07:07:51.407Z,16.61
2023-01-05T07:08:53.400Z,15.75
2023-01-05T07:09:55.783Z,15.64
2023-01-05T07:10:57.869Z,16.01
2023-01-05T07:11:59.738Z,16.31
2023-01-05T07:13:01.794Z,15.08
2023-01-05T07:14:04.086Z,15.56
2023-01-05T07:15:07.280Z,14.73
2023-01-05T07:16:10.360Z,15.06
2023-01-05T07:17:13.316Z,15.61
2023-01-05T07:18:16.048Z,16.14
2023-01-05T07:19:18.269Z,14.89
2023-01-05T07:20:21.246Z,14.19
2023-01-05T07:21:23.475Z,14.76
2023-01-05T07:22:25.346Z,14.84
2023-01-05T07:23:29.318Z,15.12
2023-01-05T07:24:32.359Z,16.71
2023-01-05T07:25:34.593Z,15.82
2023-01-05T07:26:37.030Z,17.71
2023-01-05T07:27:38.965Z,16.87
2023-01-05T07:28:41.346Z,16.13
2023-01-05T07:29:44.200Z,15.97
2023-01-05T07:30:52.798Z,15.49
2023-01-05T07:31:55.004Z,16.35
2023-01-05T07:34:28.696Z,16.15
2023-01-05T07:35:32.383Z,15.78
2023-01-05T07:36:34.749Z,15.26
2023-01-05T07:37:36.624Z,15.07
2023-01-05T07:38:38.522Z,14.22
2023-01-05T07:39:40.507Z,14.77
2023-01-05T07:40:42.993Z,14.77
2023-01-05T07:41:45.529Z,14.87
2023-01-05T07:42:54.143Z,16.16
2023-01-05T07:43:56.315Z,14.90
2023-01-05T07:44:58.202Z,13.53
2023-01-05T07:48:23.393Z,15.21
2023-01-05T07:49:22.346Z,15.26
2023-01-05T07:50:24.953Z,15.27
2023-01-05T07:51:27.211Z,15.88
2023-01-05T07:52:29.391Z,16.86
2023-01-05T07:53:38.090Z,14.85
2023-01-05T07:54:37.174Z,15.54
2023-01-05T07:55:39.104Z,14.64
2023-01-05T07:56:41.589Z,15.77
2023-01-05T07:57:43.706Z,14.63
2023-01-05T07:58:46.597Z,14.67
2023-01-05T07:59:48.609Z,15.48
2023-01-05T08:00:52.541Z,15.34
2023-01-05T08:01:54.676Z,14.31
2023-01-05T08:02:56.832Z,15.70
2023-01-05T08:03:59.010Z,14.97
2023-01-05T08:05:01.348Z,15.93
2023-01-05T08:06:12.244Z,14.49
2023-01-05T08:07:14.595Z,14.95
2023-01-05T08:08:23.894Z,13.56
2023-01-05T08:09:21.375Z,12.79
2023-01-05T08:10:23.498Z,14.35
2023-01-05T08:11:25.499Z,14.53
2023-01-05T08:12:28.343Z,14.27
2023-01-05T08:13:30.914Z,15.03
2023-01-05T08:14:32.864Z,14.16
2023-01-05T08:15:36.855Z,15.12
2023-01-05T08:16:39.299Z,14.62
2023-01-05T08:17:42.409Z,15.21
2023-01-05T08:18:44.684Z,16.36
2023-01-05T08:19:46.661Z,15.91
2023-01-05T08:20:55.204Z,14.71
2023-01-05T08:21:57.237Z,14.97
2023-01-05T08:22:59.111Z,15.06
2023-01-05T08:24:01.758Z,14.64
2023-01-05T08:25:04.939Z,14.30
2023-01-05T08:26:11.021Z,14.87
2023-01-05T08:27:13.358Z,13.67
2023-01-05T08:28:16.143Z,13.89
2023-01-05T08:29:18.178Z,12.47
2023-01-05T08:30:20.610Z,11.75
2023-01-05T08:31:25.794Z,13.88
2023-01-05T08:32:28.214Z,12.01
2023-01-05T08:33:30.606Z,13.91
2023-01-05T08:34:35.016Z,13.54
2023-01-05T08:35:41.547Z,12.39
2023-01-05T08:36:43.730Z,12.71
2023-01-05T08:37:45.640Z,13.13
2023-01-05T08:38:49.941Z,12.50
2023-01-05T08:39:51.875Z,11.95
2023-01-05T08:40:57.264Z,13.36
2023-01-05T08:42:02.730Z,13.57
2023-01-05T08:43:04.443Z,13.64
2023-01-05T08:44:09.456Z,13.48
2023-01-05T08:45:11.368Z,14.18
2023-01-05T08:46:13.682Z,13.35
2023-01-05T08:47:18.261Z,14.73
2023-01-05T08:48:19.660Z,16.11
2023-01-05T08:49:21.893Z,14.82
2023-01-05T08:50:24.441Z,15.19
2023-01-05T08:51:27.503Z,15.74
2023-01-05T08:52:29.848Z,15.43
2023-01-05T08:53:31.752Z,14.25
2023-01-05T08:54:34.896Z,14.76
2023-01-05T08:55:37.345Z,14.03
2023-01-05T08:56:40.463Z,13.90
2023-01-05T08:57:42.548Z,14.13
2023-01-05T08:58:44.728Z,13.21
2023-01-05T08:59:47.088Z,13.88
2023-01-05T09:00:49.162Z,12.83
2023-01-05T09:01:52.471Z,13.09
2023-01-05T09:02:55.025Z,13.98
2023-01-05T09:03:57.251Z,12.28
2023-01-05T09:04:59.210Z,12.23
2023-01-05T09:06:01.348Z,13.51
2023-01-05T09:07:03.937Z,13.27
2023-01-05T09:08:05.876Z,13.43
2023-01-05T09:09:07.982Z,13.00
2023-01-05T09:10:10.741Z,13.57
2023-01-05T09:11:15.903Z,13.45
2023-01-05T09:12:17.989Z,12.73
2023-01-05T09:13:20.468Z,11.52
2023-01-05T09:14:22.446Z,12.61
2023-01-05T09:15:24.317Z,11.55
2023-01-05T09:17:34.265Z,12.30
2023-01-05T09:18:39.088Z,12.20
2023-01-05T09:19:41.085Z,12.21
2023-01-05T09:20:43.254Z,12.10
2023-01-05T09:21:46.132Z,12.53
2023-01-05T09:22:48.110Z,11.99
2023-01-05T09:23:51.138Z,13.45
2023-01-05T09:24:53.100Z,12.13
2023-01-05T09:25:55.023Z,12.17
2023-01-05T09:26:58.137Z,11.02
2023-01-05T09:28:01.420Z,10.85
2023-01-05T09:29:03.787Z,10.92
2023-01-05T09:30:08.643Z,10.14
2023-01-05T09:31:19.837Z,11.24
2023-01-05T09:32:23.363Z,10.59
2023-01-05T09:33:25.847Z,10.35
2023-01-05T09:34:29.102Z,11.37
2023-01-05T09:35:31.895Z,10.31
2023-01-05T09:36:34.002Z,11.40
2023-01-05T09:37:35.884Z,11.30
2023-01-05T09:38:42.060Z,10.35
2023-01-05T09:39:41.741Z,11.66
2023-01-05T09:40:44.147Z,11.87
2023-01-05T09:41:49.823Z,11.07
2023-01-05T09:42:53.761Z,11.83
2023-01-05T09:44:01.975Z,11.27
2023-01-05T09:45:06.427Z,10.17
2023-01-05T09:46:15.496Z,10.76
2023-01-05T09:47:30.351Z,10.57
2023-01-05T09:48:41.945Z,10.63
2023-01-05T09:49:47.403Z,11.05
2023-01-05T09:50:51.340Z,10.21
2023-01-05T09:52:06.755Z,10.98
2023-01-05T09:53:11.292Z,10.73
2023-01-05T09:54:16.675Z,10.82
2023-01-05T09:55:22.230Z,11.85
2023-01-05T09:57:07.847Z,10.74
2023-01-05T09:57:39.866Z,10.48
2023-01-05T09:58:45.089Z,11.21
2023-01-05T09:59:53.622Z,11.31
2023-01-05T10:01:08.746Z,11.06
2023-01-05T10:02:23.720Z,10.95
2023-01-05T10:04:33.297Z,10.28
2023-01-05T10:05:39.337Z,11.47
2023-01-05T10:06:50.082Z,10.47
2023-01-05T10:08:04.650Z,10.49
2023-01-05T10:09:07.780Z,10.34
2023-01-05T10:10:33.359Z,10.50
2023-01-05T10:11:57.495Z,10.42
2023-01-05T10:13:02.478Z,9.67
2023-01-05T10:14:08.284Z,11.35
2023-01-05T10:15:13.966Z,10.63
2023-01-05T10:16:17.302Z,10.97
2023-01-05T10:18:30.448Z,10.18
2023-01-05T10:19:32.610Z,10.74
2023-01-05T10:20:41.468Z,10.59
2023-01-05T10:22:07.288Z,10.51
2023-01-05T10:23:29.992Z,10.49
2023-01-05T10:26:01.120Z,12.28
2023-01-05T10:27:26.444Z,11.69
2023-01-05T10:28:17.338Z,10.49
2023-01-05T10:29:23.120Z,10.46
2023-01-05T10:30:28.524Z,10.10
2023-01-05T10:31:53.621Z,10.84
2023-01-05T10:34:24.390Z,11.12
2023-01-05T10:36:00.642Z,11.33
2023-01-05T10:37:20.337Z,10.47
2023-01-05T10:38:35.179Z,10.82
2023-01-05T10:39:44.007Z,10.16
2023-01-05T10:40:49.906Z,11.61
2023-01-05T10:42:01.427Z,11.02
2023-01-05T10:44:28.072Z,10.82
2023-01-05T10:45:31.248Z,11.30
2023-01-05T10:46:42.654Z,9.84
2023-01-05T10:47:42.529Z,10.17
2023-01-05T10:48:44.790Z,10.30
2023-01-05T10:49:47.175Z,10.49
2023-01-05T10:50:52.596Z,10.48
2023-01-05T10:51:59.484Z,10.34
2023-01-05T10:53:11.440Z,10.94
2023-01-05T10:54:20.199Z,11.85
2023-01-05T10:55:23.899Z,10.97
2023-01-05T10:56:26.645Z,10.97
2023-01-05T10:57:36.873Z,10.58
2023-01-05T11:00:16.603Z,10.51
2023-01-05T11:01:22.698Z,10.70
2023-01-05T11:02:28.318Z,10.56
2023-01-05T11:04:49.489Z,10.99
2023-01-05T11:05:51.798Z,10.56
2023-01-05T11:06:57.539Z,11.45
2023-01-05T11:08:03.136Z,11.07
2023-01-05T11:09:08.432Z,10.23
2023-01-05T11:10:27.247Z,9.57
2023-01-05T11:11:29.408Z,10.07
2023-01-05T11:12:31.562Z,9.82
2023-01-05T11:13:37.031Z,9.96
2023-01-05T11:14:44.908Z,9.48
2023-01-05T11:15:50.618Z,10.72
2023-01-05T11:16:57.433Z,10.97
2023-01-05T11:17:59.651Z,10.46
2023-01-05T11:19:04.954Z,10.22
2023-01-05T11:20:11.067Z,10.80
2023-01-05T11:21:17.053Z,9.46
2023-01-05T11:22:37.522Z,9.60
2023-01-05T11:23:45.517Z,8.92
2023-01-05T11:24:47.742Z,8.86
2023-01-05T11:25:49.644Z,8.41
2023-01-05T11:26:54.825Z,7.81
2023-01-05T11:30:17.895Z,7.44
2023-01-05T11:31:20.825Z,7.38
2023-01-05T11:32:23.680Z,7.57
2023-01-05T11:33:28.589Z,7.09
2023-01-05T11:34:46.376Z,7.91
2023-01-05T11:35:48.690Z,7.31
2023-01-05T11:37:07.413Z,7.34
2023-01-05T11:38:05.431Z,6.82
2023-01-05T11:39:11.101Z,7.09
2023-01-05T11:40:17.367Z,7.07
2023-01-05T11:41:22.255Z,6.44
2023-01-05T11:42:28.465Z,6.23
2023-01-05T11:43:32.245Z,6.50
2023-01-05T11:44:35.657Z,5.80
2023-01-05T11:45:40.853Z,6.44
2023-01-05T11:46:43.734Z,6.36
2023-01-05T11:47:51.963Z,6.60
2023-01-05T11:48:56.843Z,6.49
2023-01-05T11:50:09.521Z,6.02
2023-01-05T11:51:14.444Z,6.31
2023-01-05T11:52:29.137Z,6.84
2023-01-05T11:53:34.911Z,5.76
2023-01-05T11:54:37.177Z,6.31
2023-01-05T11:55:39.209Z,5.91
2023-01-05T11:56:41.440Z,5.92
2023-01-05T11:57:43.384Z,6.42
2023-01-05T11:58:51.961Z,5.81
2023-01-05T11:59:54.228Z,5.69
2023-01-05T12:01:22.848Z,5.48
2023-01-05T12:02:31.941Z,5.43
2023-01-05T12:04:00.415Z,5.60
2023-01-05T12:05:08.732Z,6.18
2023-01-05T12:06:31.767Z,6.52
2023-01-05T12:07:36.666Z,6.11
2023-01-05T12:08:58.172Z,6.74
2023-01-05T12:10:30.606Z,6.94
2023-01-05T12:12:56.475Z,6.40
2023-01-05T12:14:14.923Z,6.87
2023-01-05T12:15:43.523Z,6.29
2023-01-05T12:16:54.893Z,7.22
2023-01-05T12:18:06.663Z,6.27
2023-01-05T12:19:18.528Z,7.82
2023-01-05T12:20:46.952Z,7.13
2023-01-05T12:22:00.591Z,6.65
2023-01-05T12:23:34.198Z,6.33
2023-01-05T12:25:01.036Z,6.81
2023-01-05T12:26:30.999Z,7.59
2023-01-05T12:28:01.737Z,8.82
2023-01-05T12:34:46.455Z,7.03
2023-01-05T12:35:55.393Z,7.31
2023-01-05T12:37:07.454Z,7.71
2023-01-05T12:38:48.664Z,7.11
2023-01-05T12:40:09.699Z,7.55
2023-01-05T12:41:31.026Z,6.72
2023-01-05T12:42:40.008Z,6.76
2023-01-05T12:44:05.634Z,6.78
2023-01-05T12:45:20.646Z,6.59
2023-01-05T12:46:29.263Z,6.64
2023-01-05T12:47:50.278Z,6.38
2023-01-05T12:51:28.229Z,6.45
2023-01-05T12:52:36.836Z,6.75
2023-01-05T12:53:51.914Z,6.74
2023-01-05T12:55:06.188Z,6.87
2023-01-05T12:57:35.733Z,5.93
2023-01-05T12:58:41.403Z,6.13
2023-01-05T12:59:50.042Z,5.78
2023-01-05T13:00:55.647Z,5.48
2023-01-05T13:02:16.463Z,5.38
2023-01-05T13:03:31.222Z,5.69
2023-01-05T13:04:48.473Z,5.02
2023-01-05T13:05:56.552Z,5.21
2023-01-05T13:07:01.704Z,5.16
2023-01-05T13:08:16.575Z,5.15
2023-01-05T13:09:23.740Z,5.37
2023-01-05T13:10:50.839Z,5.88
2023-01-05T13:11:59.371Z,5.54
2023-01-05T13:13:05.096Z,5.33
2023-01-05T13:14:19.544Z,5.84
2023-01-05T13:15:28.903Z,5.43
2023-01-05T13:16:51.680Z,5.17
2023-01-05T13:17:58.746Z,4.88
2023-01-05T13:19:10.791Z,4.84
2023-01-05T13:20:29.086Z,4.57
2023-01-05T13:21:32.530Z,4.75
2023-01-05T13:22:38.781Z,4.92
2023-01-05T13:23:44.632Z,4.42
2023-01-05T13:24:53.132Z,4.32
2023-01-05T13:26:16.905Z,4.20
2023-01-05T13:27:18.960Z,4.42
2023-01-05T13:28:24.532Z,4.22
2023-01-05T13:31:29.810Z,4.76
2023-01-05T13:33:59.647Z,3.99
2023-01-05T13:35:34.682Z,4.54
2023-01-05T13:37:08.095Z,4.64
2023-01-05T13:39:47.025Z,3.97
2023-01-05T13:40:58.833Z,4.15
2023-01-05T13:43:34.225Z,4.88
2023-01-05T13:44:55.446Z,4.64
2023-01-05T13:46:35.441Z,4.53
2023-01-05T13:49:34.652Z,5.15
2023-01-05T13:50:43.477Z,4.84
2023-01-05T13:51:54.965Z,5.54
2023-01-05T13:53:13.472Z,5.07
2023-01-05T13:54:19.864Z,4.99
2023-01-05T13:55:26.658Z,5.30
2023-01-05T13:56:32.114Z,5.99
2023-01-05T13:57:40.587Z,6.35
2023-01-05T13:58:46.039Z,6.70
2023-01-05T14:00:04.052Z,7.26
2023-01-05T14:00:57.204Z,7.31
2023-01-05T14:01:59.896Z,7.03
2023-01-05T14:03:05.750Z,7.15
2023-01-05T14:04:26.843Z,6.98
2023-01-05T14:05:35.501Z,7.83
2023-01-05T14:06:41.461Z,7.74
2023-01-05T14:07:44.349Z,7.36
2023-01-05T14:08:59.169Z,6.87
2023-01-05T14:10:01.825Z,7.08
2023-01-05T14:11:22.773Z,7.30
2023-01-05T14:12:49.561Z,7.12
2023-01-05T14:13:57.765Z,7.31
2023-01-05T14:15:06.414Z,6.89
2023-01-05T14:16:35.511Z,7.12
2023-01-05T14:17:52.181Z,6.52
2023-01-05T14:18:57.904Z,6.26
2023-01-05T14:19:59.924Z,5.78
2023-01-05T14:21:10.827Z,5.05
2023-01-05T14:22:22.580Z,5.84
2023-01-05T14:23:28.371Z,5.95
2023-01-05T14:24:41.443Z,5.57
2023-01-05T14:25:47.062Z,5.07
2023-01-05T14:27:09.775Z,5.34
2023-01-05T14:28:31.315Z,5.12
2023-01-05T14:29:56.594Z,5.23
2023-01-05T14:31:12.333Z,4.73
2023-01-05T14:32:21.084Z,4.29
2023-01-05T14:33:23.004Z,4.96
2023-01-05T14:34:27.370Z,4.35
2023-01-05T14:35:31.788Z,4.25
2023-01-05T14:36:37.859Z,3.61
2023-01-05T14:38:01.955Z,4.99
2023-01-05T14:39:23.151Z,4.05
2023-01-05T14:40:34.822Z,4.37
2023-01-05T14:41:37.812Z,4.28
2023-01-05T14:42:40.616Z,4.00
2023-01-05T14:43:42.867Z,4.06
2023-01-05T14:46:14.426Z,4.27
2023-01-05T14:47:35.348Z,4.21
2023-01-05T14:48:41.617Z,3.85
2023-01-05T14:49:55.101Z,3.84
2023-01-05T14:51:17.915Z,4.23
2023-01-05T14:52:24.122Z,3.71
2023-01-05T14:53:40.543Z,4.13
2023-01-05T14:54:46.942Z,4.09
2023-01-05T14:55:56.722Z,4.14
2023-01-05T14:57:22.370Z,3.83
2023-01-05T14:58:40.442Z,4.52
2023-01-05T14:59:44.875Z,4.58
2023-01-05T15:00:51.684Z,4.85
2023-01-05T15:02:02.848Z,4.43
2023-01-05T15:03:23.916Z,4.45
2023-01-05T15:04:38.971Z,4.26
2023-01-05T15:05:44.648Z,4.44
2023-01-05T15:08:12.752Z,4.96
2023-01-05T15:09:34.676Z,4.48
2023-01-05T15:11:00.673Z,3.69
2023-01-05T15:12:24.854Z,4.67
2023-01-05T15:13:46.387Z,4.00
2023-01-05T15:15:19.767Z,3.95
2023-01-05T15:17:50.976Z,4.11
2023-01-05T15:19:15.008Z,4.24